Brejo, Brazil
Current Conditions -  °F | °C
As of 10:00 PM on Sunday 21 Dec 2014 (Local Time) from SBPB Reporting Station
Clear Clear  
Wind Chill: 82°   Ceiling: Unl
Heat Index: 88°   Visibility: 6mi
Dew Point: 73°   Wind: 23mph
Humidity: 74%   Direction: 90°E
Pressure: 29.85"   Gusts: NA
Location:  3.68°S, 42.75°W
Report Text: SBPB 220100Z 09020KT CAVOK 28/23 Q1011
Loading
Personal Weather Stations






























Interactive Weather Map New forecast layout! Learn more

10-Day Weather Forecast

Advertisements
Track Severe Weather on mobile